Hazle Township, Pennsylvania
Current Conditions -  °F | °C
As of 11:35 AM on Friday 28 Nov 2014 (Local Time) from KHZL Reporting Station
Overcast Overcast  
Wind Chill: 17°   Ceiling: 3400
Heat Index: 28°   Visibility: 10mi
Dew Point: 14°   Wind: 15mph
Humidity: 55%   Direction: 300°WNW
Pressure: 30.18"   Gusts: 18mph
Location:  40.9393°N, 75.992°W
Report Text: KHZL 281635Z AUTO 30013G16KT 10SM OVC034 M02/M10 A3018 RMK AO2
Loading
Personal Weather Stations






























Interactive Weather Map New forecast layout! Learn more

10-Day Weather Forecast

Advertisements
Track Severe Weather on mobile